Terminal Aerodrome Forecast
Issued by NWS Rapid City, SD

Home | Current Version | Previous Version | Text Only | Print | Product List | Glossary Off
Versions: 1 2 3 4 5 6 7 8 9 10 11 12 13 14 15 16 17 18 19 20 21 22

912
FTUS43 KUNR 261720
TAFRAP
TAF
KRAP 261720Z 2618/2718 15014KT P6SM SKC
     FM270500 14008KT P6SM SCT200 WS020/18040KT
     FM271400 18014G22KT P6SM SCT150=

USA.gov is the U.S. government's official web portal to all federal, state and local government web resources and services.